sensor_id;sensor_type;location;lat;lon;timestamp;temperature;humidity
45096;DHT22;30858;51.108;8.068;2023-04-03T00:01:12;0.40;99.90
45096;DHT22;30858;51.108;8.068;2023-04-03T00:03:37;0.40;99.90
45096;DHT22;30858;51.108;8.068;2023-04-03T00:06:03;0.30;99.90
45096;DHT22;30858;51.108;8.068;2023-04-03T00:08:30;0.20;99.90
45096;DHT22;30858;51.108;8.068;2023-04-03T00:10:58;0.30;99.90
45096;DHT22;30858;51.108;8.068;2023-04-03T00:13:24;0.30;99.90
45096;DHT22;30858;51.108;8.068;2023-04-03T00:15:50;0.10;99.90
45096;DHT22;30858;51.108;8.068;2023-04-03T00:18:16;0.00;99.90
45096;DHT22;30858;51.108;8.068;2023-04-03T00:20:41;0.00;99.90
45096;DHT22;30858;51.108;8.068;2023-04-03T00:23:07;0.00;99.90
45096;DHT22;30858;51.108;8.068;2023-04-03T00:25:33;0.00;99.90
45096;DHT22;30858;51.108;8.068;2023-04-03T00:27:59;0.00;99.90
45096;DHT22;30858;51.108;8.068;2023-04-03T00:30:25;0.00;99.90
45096;DHT22;30858;51.108;8.068;2023-04-03T00:32:51;-0.10;99.90
45096;DHT22;30858;51.108;8.068;2023-04-03T00:35:18;-0.10;99.90
45096;DHT22;30858;51.108;8.068;2023-04-03T00:37:44;-0.10;99.90
45096;DHT22;30858;51.108;8.068;2023-04-03T00:40:11;-0.10;99.90
45096;DHT22;30858;51.108;8.068;2023-04-03T00:42:37;-0.10;99.90
45096;DHT22;30858;51.108;8.068;2023-04-03T00:47:30;-0.10;99.90
45096;DHT22;30858;51.108;8.068;2023-04-03T00:49:56;-0.20;99.90
45096;DHT22;30858;51.108;8.068;2023-04-03T00:52:26;-0.20;99.90
45096;DHT22;30858;51.108;8.068;2023-04-03T00:54:54;-0.30;99.90
45096;DHT22;30858;51.108;8.068;2023-04-03T00:57:22;-0.40;99.90
45096;DHT22;30858;51.108;8.068;2023-04-03T00:59:52;-0.40;99.90
45096;DHT22;30858;51.108;8.068;2023-04-03T01:02:19;-0.40;99.90
45096;DHT22;30858;51.108;8.068;2023-04-03T01:04:44;-0.50;99.90
45096;DHT22;30858;51.108;8.068;2023-04-03T01:07:17;-0.50;99.90
45096;DHT22;30858;51.108;8.068;2023-04-03T01:09:45;-0.50;99.90
45096;DHT22;30858;51.108;8.068;2023-04-03T01:12:25;-0.50;99.90
45096;DHT22;30858;51.108;8.068;2023-04-03T01:14:54;-0.60;99.90
45096;DHT22;30858;51.108;8.068;2023-04-03T01:17:27;-0.60;99.90
45096;DHT22;30858;51.108;8.068;2023-04-03T01:20:22;-0.60;99.90
45096;DHT22;30858;51.108;8.068;2023-04-03T01:28:14;-0.60;99.90
45096;DHT22;30858;51.108;8.068;2023-04-03T01:30:48;-0.70;99.90
45096;DHT22;30858;51.108;8.068;2023-04-03T01:33:14;-0.70;99.90
45096;DHT22;30858;51.108;8.068;2023-04-03T01:35:40;-0.80;99.90
45096;DHT22;30858;51.108;8.068;2023-04-03T01:38:06;-0.80;99.90
45096;DHT22;30858;51.108;8.068;2023-04-03T01:40:32;-0.80;99.90
45096;DHT22;30858;51.108;8.068;2023-04-03T01:42:57;-0.80;99.90
45096;DHT22;30858;51.108;8.068;2023-04-03T01:45:23;-0.90;99.90
45096;DHT22;30858;51.108;8.068;2023-04-03T01:47:49;-0.90;99.90
45096;DHT22;30858;51.108;8.068;2023-04-03T01:50:14;-1.00;99.90
45096;DHT22;30858;51.108;8.068;2023-04-03T01:52:40;-1.00;99.90
45096;DHT22;30858;51.108;8.068;2023-04-03T01:55:06;-1.10;99.90
45096;DHT22;30858;51.108;8.068;2023-04-03T01:57:32;-1.00;99.90
45096;DHT22;30858;51.108;8.068;2023-04-03T01:59:57;-1.00;99.90
45096;DHT22;30858;51.108;8.068;2023-04-03T02:02:22;-0.90;99.90
45096;DHT22;30858;51.108;8.068;2023-04-03T02:04:48;-1.00;99.90
45096;DHT22;30858;51.108;8.068;2023-04-03T02:07:14;-1.10;99.90
45096;DHT22;30858;51.108;8.068;2023-04-03T02:09:39;-1.10;99.90
45096;DHT22;30858;51.108;8.068;2023-04-03T02:12:05;-1.10;99.90
45096;DHT22;30858;51.108;8.068;2023-04-03T02:14:31;-1.10;99.90
45096;DHT22;30858;51.108;8.068;2023-04-03T02:16:56;-1.10;99.90
45096;DHT22;30858;51.108;8.068;2023-04-03T02:19:22;-1.10;99.90
45096;DHT22;30858;51.108;8.068;2023-04-03T02:21:48;-1.20;99.90
45096;DHT22;30858;51.108;8.068;2023-04-03T02:24:13;-1.20;99.90
45096;DHT22;30858;51.108;8.068;2023-04-03T02:26:39;-1.20;99.90
45096;DHT22;30858;51.108;8.068;2023-04-03T02:29:04;-1.30;99.90
45096;DHT22;30858;51.108;8.068;2023-04-03T02:31:30;-1.30;99.90
45096;DHT22;30858;51.108;8.068;2023-04-03T02:33:55;-1.30;99.90
45096;DHT22;30858;51.108;8.068;2023-04-03T02:36:21;-1.20;99.90
45096;DHT22;30858;51.108;8.068;2023-04-03T02:38:46;-1.20;99.90
45096;DHT22;30858;51.108;8.068;2023-04-03T02:41:13;-1.30;99.90
45096;DHT22;30858;51.108;8.068;2023-04-03T02:43:39;-1.20;99.90
45096;DHT22;30858;51.108;8.068;2023-04-03T02:46:05;-1.20;99.90
45096;DHT22;30858;51.108;8.068;2023-04-03T02:48:31;-1.20;99.90
45096;DHT22;30858;51.108;8.068;2023-04-03T02:50:57;-1.30;99.90
45096;DHT22;30858;51.108;8.068;2023-04-03T02:53:23;-1.30;99.90
45096;DHT22;30858;51.108;8.068;2023-04-03T02:55:49;-1.30;99.90
45096;DHT22;30858;51.108;8.068;2023-04-03T02:58:14;-1.30;99.90
45096;DHT22;30858;51.108;8.068;2023-04-03T03:00:40;-1.40;99.90
45096;DHT22;30858;51.108;8.068;2023-04-03T03:03:06;-1.50;99.90
45096;DHT22;30858;51.108;8.068;2023-04-03T03:05:32;-1.50;99.90
45096;DHT22;30858;51.108;8.068;2023-04-03T03:07:58;-1.50;99.90
45096;DHT22;30858;51.108;8.068;2023-04-03T03:10:23;-1.50;99.90
45096;DHT22;30858;51.108;8.068;2023-04-03T03:12:49;-1.50;99.90
45096;DHT22;30858;51.108;8.068;2023-04-03T03:15:15;-1.60;99.90
45096;DHT22;30858;51.108;8.068;2023-04-03T03:17:41;-1.60;99.90
45096;DHT22;30858;51.108;8.068;2023-04-03T03:20:07;-1.60;99.90
45096;DHT22;30858;51.108;8.068;2023-04-03T03:22:33;-1.60;99.90
45096;DHT22;30858;51.108;8.068;2023-04-03T03:25:00;-1.70;99.90
45096;DHT22;30858;51.108;8.068;2023-04-03T03:27:26;-1.70;99.90
45096;DHT22;30858;51.108;8.068;2023-04-03T03:29:51;-1.70;99.90
45096;DHT22;30858;51.108;8.068;2023-04-03T03:32:17;-1.60;99.90
45096;DHT22;30858;51.108;8.068;2023-04-03T03:34:43;-1.70;99.90
45096;DHT22;30858;51.108;8.068;2023-04-03T03:37:08;-1.80;99.90
45096;DHT22;30858;51.108;8.068;2023-04-03T03:39:34;-1.80;99.90
45096;DHT22;30858;51.108;8.068;2023-04-03T03:41:59;-1.80;99.90
45096;DHT22;30858;51.108;8.068;2023-04-03T03:44:25;-1.80;99.90
45096;DHT22;30858;51.108;8.068;2023-04-03T03:46:50;-1.90;99.90
45096;DHT22;30858;51.108;8.068;2023-04-03T03:49:16;-1.90;99.90
45096;DHT22;30858;51.108;8.068;2023-04-03T03:51:41;-1.80;99.90
45096;DHT22;30858;51.108;8.068;2023-04-03T03:54:07;-1.80;99.90
45096;DHT22;30858;51.108;8.068;2023-04-03T03:56:33;-1.80;99.90
45096;DHT22;30858;51.108;8.068;2023-04-03T03:58:59;-1.80;99.90
45096;DHT22;30858;51.108;8.068;2023-04-03T04:01:25;-1.80;99.90
45096;DHT22;30858;51.108;8.068;2023-04-03T04:03:51;-1.90;99.90
45096;DHT22;30858;51.108;8.068;2023-04-03T04:06:17;-1.80;99.90
45096;DHT22;30858;51.108;8.068;2023-04-03T04:08:42;-1.90;99.90
45096;DHT22;30858;51.108;8.068;2023-04-03T04:11:09;-1.90;99.90
45096;DHT22;30858;51.108;8.068;2023-04-03T04:13:35;-2.00;99.90
45096;DHT22;30858;51.108;8.068;2023-04-03T04:16:00;-2.10;99.90
45096;DHT22;30858;51.108;8.068;2023-04-03T04:18:26;-2.00;99.90
45096;DHT22;30858;51.108;8.068;2023-04-03T04:20:51;-2.10;99.90
45096;DHT22;30858;51.108;8.068;2023-04-03T04:23:18;-2.00;99.90
45096;DHT22;30858;51.108;8.068;2023-04-03T04:25:45;-2.10;99.90
45096;DHT22;30858;51.108;8.068;2023-04-03T04:28:11;-2.10;99.90
45096;DHT22;30858;51.108;8.068;2023-04-03T04:30:37;-2.00;99.90
45096;DHT22;30858;51.108;8.068;2023-04-03T04:33:02;-2.00;99.90
45096;DHT22;30858;51.108;8.068;2023-04-03T04:35:28;-2.10;99.90
45096;DHT22;30858;51.108;8.068;2023-04-03T04:37:53;-2.00;99.90
45096;DHT22;30858;51.108;8.068;2023-04-03T04:40:19;-2.10;99.90
45096;DHT22;30858;51.108;8.068;2023-04-03T04:42:45;-2.00;99.90
45096;DHT22;30858;51.108;8.068;2023-04-03T04:45:10;-2.10;99.90
45096;DHT22;30858;51.108;8.068;2023-04-03T04:47:36;-2.10;99.90
45096;DHT22;30858;51.108;8.068;2023-04-03T04:50:02;-2.10;99.90
45096;DHT22;30858;51.108;8.068;2023-04-03T04:52:27;-2.20;99.90
45096;DHT22;30858;51.108;8.068;2023-04-03T04:54:53;-2.20;99.90
45096;DHT22;30858;51.108;8.068;2023-04-03T04:57:18;-2.30;99.90
45096;DHT22;30858;51.108;8.068;2023-04-03T04:59:44;-2.30;99.90
45096;DHT22;30858;51.108;8.068;2023-04-03T05:02:09;-2.30;99.90
45096;DHT22;30858;51.108;8.068;2023-04-03T05:04:35;-2.30;99.90
45096;DHT22;30858;51.108;8.068;2023-04-03T05:07:00;-2.10;99.90
45096;DHT22;30858;51.108;8.068;2023-04-03T05:09:26;-2.10;99.90
45096;DHT22;30858;51.108;8.068;2023-04-03T05:11:51;-2.10;99.90
45096;DHT22;30858;51.108;8.068;2023-04-03T05:14:17;-2.20;99.90
45096;DHT22;30858;51.108;8.068;2023-04-03T05:16:42;-2.10;99.90
45096;DHT22;30858;51.108;8.068;2023-04-03T05:19:08;-2.10;99.90
45096;DHT22;30858;51.108;8.068;2023-04-03T05:21:33;-2.10;99.90
45096;DHT22;30858;51.108;8.068;2023-04-03T05:24:00;-2.20;99.90
45096;DHT22;30858;51.108;8.068;2023-04-03T05:26:29;-2.30;99.90
45096;DHT22;30858;51.108;8.068;2023-04-03T05:28:54;-2.30;99.90
45096;DHT22;30858;51.108;8.068;2023-04-03T05:31:20;-2.20;99.90
45096;DHT22;30858;51.108;8.068;2023-04-03T05:33:46;-2.30;99.90
45096;DHT22;30858;51.108;8.068;2023-04-03T05:36:12;-2.30;99.90
45096;DHT22;30858;51.108;8.068;2023-04-03T05:38:38;-2.30;99.90
45096;DHT22;30858;51.108;8.068;2023-04-03T05:41:04;-2.30;99.90
45096;DHT22;30858;51.108;8.068;2023-04-03T05:43:30;-2.30;99.90
45096;DHT22;30858;51.108;8.068;2023-04-03T05:45:55;-2.30;99.90
45096;DHT22;30858;51.108;8.068;2023-04-03T05:48:21;-2.30;99.90
45096;DHT22;30858;51.108;8.068;2023-04-03T05:50:47;-2.10;99.90
45096;DHT22;30858;51.108;8.068;2023-04-03T05:53:17;-2.10;99.90
45096;DHT22;30858;51.108;8.068;2023-04-03T05:55:44;-2.10;99.90
45096;DHT22;30858;51.108;8.068;2023-04-03T05:58:09;-2.10;99.90
45096;DHT22;30858;51.108;8.068;2023-04-03T06:00:35;-2.20;99.90
45096;DHT22;30858;51.108;8.068;2023-04-03T06:03:01;-2.10;99.90
45096;DHT22;30858;51.108;8.068;2023-04-03T06:05:27;-2.10;99.90
45096;DHT22;30858;51.108;8.068;2023-04-03T06:07:53;-2.00;99.90
45096;DHT22;30858;51.108;8.068;2023-04-03T06:10:18;-2.00;99.90
45096;DHT22;30858;51.108;8.068;2023-04-03T06:12:45;-1.90;99.90
45096;DHT22;30858;51.108;8.068;2023-04-03T06:15:11;-1.80;99.90
45096;DHT22;30858;51.108;8.068;2023-04-03T06:17:37;-1.50;99.90
45096;DHT22;30858;51.108;8.068;2023-04-03T06:20:03;-1.10;99.90
45096;DHT22;30858;51.108;8.068;2023-04-03T06:22:29;-0.70;99.90
45096;DHT22;30858;51.108;8.068;2023-04-03T06:24:55;-0.50;99.90
45096;DHT22;30858;51.108;8.068;2023-04-03T06:27:21;-0.20;99.90
45096;DHT22;30858;51.108;8.068;2023-04-03T06:29:46;0.20;99.90
45096;DHT22;30858;51.108;8.068;2023-04-03T06:32:13;0.50;99.90
45096;DHT22;30858;51.108;8.068;2023-04-03T06:34:38;0.60;99.90
45096;DHT22;30858;51.108;8.068;2023-04-03T06:37:04;0.70;99.90
45096;DHT22;30858;51.108;8.068;2023-04-03T06:39:30;0.80;99.90
45096;DHT22;30858;51.108;8.068;2023-04-03T06:41:55;1.00;99.90
45096;DHT22;30858;51.108;8.068;2023-04-03T06:44:21;1.00;99.90
45096;DHT22;30858;51.108;8.068;2023-04-03T06:46:46;1.20;99.90
45096;DHT22;30858;51.108;8.068;2023-04-03T06:49:12;1.30;99.90
45096;DHT22;30858;51.108;8.068;2023-04-03T06:51:38;1.40;99.90
45096;DHT22;30858;51.108;8.068;2023-04-03T06:54:05;1.70;99.90
45096;DHT22;30858;51.108;8.068;2023-04-03T06:56:31;1.90;99.90
45096;DHT22;30858;51.108;8.068;2023-04-03T06:58:57;2.00;99.90
45096;DHT22;30858;51.108;8.068;2023-04-03T07:01:24;1.90;99.90
45096;DHT22;30858;51.108;8.068;2023-04-03T07:03:51;2.10;99.90
45096;DHT22;30858;51.108;8.068;2023-04-03T07:06:17;2.10;99.90
45096;DHT22;30858;51.108;8.068;2023-04-03T07:08:44;2.20;99.90
45096;DHT22;30858;51.108;8.068;2023-04-03T07:11:12;2.20;99.90
45096;DHT22;30858;51.108;8.068;2023-04-03T07:13:38;2.40;99.90
45096;DHT22;30858;51.108;8.068;2023-04-03T07:16:04;2.40;99.90
45096;DHT22;30858;51.108;8.068;2023-04-03T07:18:31;2.60;99.90
45096;DHT22;30858;51.108;8.068;2023-04-03T07:20:57;2.70;99.90
45096;DHT22;30858;51.108;8.068;2023-04-03T07:23:24;2.90;99.90
45096;DHT22;30858;51.108;8.068;2023-04-03T07:25:50;3.10;99.90
45096;DHT22;30858;51.108;8.068;2023-04-03T07:28:17;3.10;99.90
45096;DHT22;30858;51.108;8.068;2023-04-03T07:30:58;3.10;99.90
45096;DHT22;30858;51.108;8.068;2023-04-03T07:33:25;3.20;99.90
45096;DHT22;30858;51.108;8.068;2023-04-03T07:35:50;3.40;99.90
45096;DHT22;30858;51.108;8.068;2023-04-03T07:38:16;3.40;99.90
45096;DHT22;30858;51.108;8.068;2023-04-03T07:40:48;3.50;99.90
45096;DHT22;30858;51.108;8.068;2023-04-03T07:43:16;3.60;99.90
45096;DHT22;30858;51.108;8.068;2023-04-03T07:45:42;3.60;99.90
45096;DHT22;30858;51.108;8.068;2023-04-03T07:48:09;3.70;99.90
45096;DHT22;30858;51.108;8.068;2023-04-03T07:50:34;3.70;99.90
45096;DHT22;30858;51.108;8.068;2023-04-03T07:53:01;3.70;99.90
45096;DHT22;30858;51.108;8.068;2023-04-03T07:55:27;3.50;99.90
45096;DHT22;30858;51.108;8.068;2023-04-03T07:57:52;3.90;99.90
45096;DHT22;30858;51.108;8.068;2023-04-03T08:00:18;4.00;99.90
45096;DHT22;30858;51.108;8.068;2023-04-03T08:02:44;4.20;99.90
45096;DHT22;30858;51.108;8.068;2023-04-03T08:05:16;4.40;99.90
45096;DHT22;30858;51.108;8.068;2023-04-03T08:07:42;4.60;99.90
45096;DHT22;30858;51.108;8.068;2023-04-03T08:10:08;4.40;99.90
45096;DHT22;30858;51.108;8.068;2023-04-03T08:12:34;4.50;99.90
45096;DHT22;30858;51.108;8.068;2023-04-03T08:15:00;4.70;99.90
45096;DHT22;30858;51.108;8.068;2023-04-03T08:17:26;4.90;99.90
45096;DHT22;30858;51.108;8.068;2023-04-03T08:19:51;5.00;99.90
45096;DHT22;30858;51.108;8.068;2023-04-03T08:22:17;5.00;99.90
45096;DHT22;30858;51.108;8.068;2023-04-03T08:24:43;4.70;99.90
45096;DHT22;30858;51.108;8.068;2023-04-03T08:27:08;4.80;99.90
45096;DHT22;30858;51.108;8.068;2023-04-03T08:29:34;5.00;99.90
45096;DHT22;30858;51.108;8.068;2023-04-03T08:31:59;5.20;99.90
45096;DHT22;30858;51.108;8.068;2023-04-03T08:34:25;5.30;99.90
45096;DHT22;30858;51.108;8.068;2023-04-03T08:36:51;5.30;99.90
45096;DHT22;30858;51.108;8.068;2023-04-03T08:39:16;5.50;99.90
45096;DHT22;30858;51.108;8.068;2023-04-03T08:41:44;5.90;99.90
45096;DHT22;30858;51.108;8.068;2023-04-03T08:49:53;5.00;99.90
45096;DHT22;30858;51.108;8.068;2023-04-03T08:52:41;5.30;99.90
45096;DHT22;30858;51.108;8.068;2023-04-03T08:58:06;5.50;99.90
45096;DHT22;30858;51.108;8.068;2023-04-03T09:00:51;5.70;99.90
45096;DHT22;30858;51.108;8.068;2023-04-03T09:03:20;5.60;99.90
45096;DHT22;30858;51.108;8.068;2023-04-03T09:05:54;5.60;99.90
45096;DHT22;30858;51.108;8.068;2023-04-03T09:08:31;5.50;99.90
45096;DHT22;30858;51.108;8.068;2023-04-03T09:17:03;5.70;99.90
45096;DHT22;30858;51.108;8.068;2023-04-03T09:20:24;5.60;99.00
45096;DHT22;30858;51.108;8.068;2023-04-03T09:22:32;6.20;99.90
45096;DHT22;30858;51.108;8.068;2023-04-03T09:25:02;6.20;96.40
45096;DHT22;30858;51.108;8.068;2023-04-03T09:27:31;6.50;95.10
45096;DHT22;30858;51.108;8.068;2023-04-03T09:29:57;6.50;92.70
45096;DHT22;30858;51.108;8.068;2023-04-03T09:32:28;6.80;94.30
45096;DHT22;30858;51.108;8.068;2023-04-03T09:37:43;6.30;90.20
45096;DHT22;30858;51.108;8.068;2023-04-03T09:40:29;6.30;89.60
45096;DHT22;30858;51.108;8.068;2023-04-03T09:42:59;6.10;87.50
45096;DHT22;30858;51.108;8.068;2023-04-03T09:45:32;6.60;90.00
45096;DHT22;30858;51.108;8.068;2023-04-03T09:50:37;6.80;91.50
45096;DHT22;30858;51.108;8.068;2023-04-03T09:53:11;7.00;90.50
45096;DHT22;30858;51.108;8.068;2023-04-03T09:55:50;6.90;91.70
45096;DHT22;30858;51.108;8.068;2023-04-03T09:58:39;7.10;92.10
45096;DHT22;30858;51.108;8.068;2023-04-03T10:01:29;7.10;90.90
45096;DHT22;30858;51.108;8.068;2023-04-03T10:04:15;7.50;88.80
45096;DHT22;30858;51.108;8.068;2023-04-03T10:06:47;7.60;90.10
45096;DHT22;30858;51.108;8.068;2023-04-03T10:09:25;7.60;90.00
45096;DHT22;30858;51.108;8.068;2023-04-03T10:12:11;7.40;92.60
45096;DHT22;30858;51.108;8.068;2023-04-03T10:14:55;7.80;90.40
45096;DHT22;30858;51.108;8.068;2023-04-03T10:20:00;7.30;90.70
45096;DHT22;30858;51.108;8.068;2023-04-03T10:22:37;7.70;91.60
45096;DHT22;30858;51.108;8.068;2023-04-03T10:27:48;7.90;90.20
45096;DHT22;30858;51.108;8.068;2023-04-03T10:30:38;8.00;89.60
45096;DHT22;30858;51.108;8.068;2023-04-03T10:38:33;8.10;85.80
45096;DHT22;30858;51.108;8.068;2023-04-03T10:46:49;8.60;84.50
45096;DHT22;30858;51.108;8.068;2023-04-03T10:51:45;7.40;85.70
45096;DHT22;30858;51.108;8.068;2023-04-03T10:54:23;7.40;87.50
45096;DHT22;30858;51.108;8.068;2023-04-03T10:57:04;7.70;87.10
45096;DHT22;30858;51.108;8.068;2023-04-03T10:59:45;7.90;85.60
45096;DHT22;30858;51.108;8.068;2023-04-03T11:02:36;7.80;85.40
45096;DHT22;30858;51.108;8.068;2023-04-03T11:05:04;7.80;85.60
45096;DHT22;30858;51.108;8.068;2023-04-03T11:07:39;7.60;84.70
45096;DHT22;30858;51.108;8.068;2023-04-03T11:10:21;8.00;82.70
45096;DHT22;30858;51.108;8.068;2023-04-03T11:12:54;8.20;82.50
45096;DHT22;30858;51.108;8.068;2023-04-03T11:15:24;7.70;85.10
45096;DHT22;30858;51.108;8.068;2023-04-03T11:17:55;8.20;83.50
45096;DHT22;30858;51.108;8.068;2023-04-03T11:20:33;8.20;83.70
45096;DHT22;30858;51.108;8.068;2023-04-03T11:23:22;8.40;81.40
45096;DHT22;30858;51.108;8.068;2023-04-03T11:25:53;8.40;80.90
45096;DHT22;30858;51.108;8.068;2023-04-03T11:28:19;8.90;80.20
45096;DHT22;30858;51.108;8.068;2023-04-03T11:36:29;9.30;77.60
45096;DHT22;30858;51.108;8.068;2023-04-03T11:38:59;8.70;76.20
45096;DHT22;30858;51.108;8.068;2023-04-03T11:41:28;8.60;78.60
45096;DHT22;30858;51.108;8.068;2023-04-03T11:44:04;8.80;78.00
45096;DHT22;30858;51.108;8.068;2023-04-03T11:46:50;8.20;81.00
45096;DHT22;30858;51.108;8.068;2023-04-03T12:13:40;9.00;77.10
45096;DHT22;30858;51.108;8.068;2023-04-03T12:16:28;8.60;76.40
45096;DHT22;30858;51.108;8.068;2023-04-03T12:19:02;8.50;76.70
45096;DHT22;30858;51.108;8.068;2023-04-03T12:30:30;9.50;75.90
45096;DHT22;30858;51.108;8.068;2023-04-03T12:32:50;9.50;74.70
45096;DHT22;30858;51.108;8.068;2023-04-03T12:40:57;9.10;74.70
45096;DHT22;30858;51.108;8.068;2023-04-03T12:46:23;9.20;74.60
45096;DHT22;30858;51.108;8.068;2023-04-03T12:48:50;9.60;74.80
45096;DHT22;30858;51.108;8.068;2023-04-03T12:53:49;9.70;76.40
45096;DHT22;30858;51.108;8.068;2023-04-03T12:56:30;10.40;77.10
45096;DHT22;30858;51.108;8.068;2023-04-03T12:59:20;10.90;76.70
45096;DHT22;30858;51.108;8.068;2023-04-03T13:02:00;10.40;75.00
45096;DHT22;30858;51.108;8.068;2023-04-03T13:04:28;10.10;79.10
45096;DHT22;30858;51.108;8.068;2023-04-03T13:06:54;11.10;77.50
45096;DHT22;30858;51.108;8.068;2023-04-03T13:09:28;11.00;75.30
45096;DHT22;30858;51.108;8.068;2023-04-03T13:14:33;12.40;75.40
45096;DHT22;30858;51.108;8.068;2023-04-03T13:17:10;12.10;74.60
45096;DHT22;30858;51.108;8.068;2023-04-03T13:19:37;11.50;72.60
45096;DHT22;30858;51.108;8.068;2023-04-03T13:22:06;10.80;72.70
45096;DHT22;30858;51.108;8.068;2023-04-03T13:24:36;10.80;72.60
45096;DHT22;30858;51.108;8.068;2023-04-03T13:27:05;10.60;73.20
45096;DHT22;30858;51.108;8.068;2023-04-03T13:29:36;11.20;72.30
45096;DHT22;30858;51.108;8.068;2023-04-03T13:32:03;11.30;71.30
45096;DHT22;30858;51.108;8.068;2023-04-03T13:34:37;11.20;72.90
45096;DHT22;30858;51.108;8.068;2023-04-03T13:37:03;11.20;72.90
45096;DHT22;30858;51.108;8.068;2023-04-03T13:39:39;11.30;71.00
45096;DHT22;30858;51.108;8.068;2023-04-03T13:42:24;11.00;72.70
45096;DHT22;30858;51.108;8.068;2023-04-03T13:47:48;10.80;75.40
45096;DHT22;30858;51.108;8.068;2023-04-03T13:50:23;10.70;72.00
45096;DHT22;30858;51.108;8.068;2023-04-03T13:53:00;11.40;71.90
45096;DHT22;30858;51.108;8.068;2023-04-03T13:55:34;11.30;69.20
45096;DHT22;30858;51.108;8.068;2023-04-03T14:02:59;11.70;69.80
45096;DHT22;30858;51.108;8.068;2023-04-03T14:05:25;11.30;70.20
45096;DHT22;30858;51.108;8.068;2023-04-03T14:07:52;11.00;70.90
45096;DHT22;30858;51.108;8.068;2023-04-03T14:10:18;10.50;70.20
45096;DHT22;30858;51.108;8.068;2023-04-03T14:12:44;10.50;72.50
45096;DHT22;30858;51.108;8.068;2023-04-03T14:15:28;11.60;71.00
45096;DHT22;30858;51.108;8.068;2023-04-03T14:17:54;12.50;68.20
45096;DHT22;30858;51.108;8.068;2023-04-03T14:20:23;12.50;71.00
45096;DHT22;30858;51.108;8.068;2023-04-03T14:22:49;11.40;68.50
45096;DHT22;30858;51.108;8.068;2023-04-03T14:25:16;12.40;69.40
45096;DHT22;30858;51.108;8.068;2023-04-03T14:27:47;12.40;69.70
45096;DHT22;30858;51.108;8.068;2023-04-03T14:32:45;11.30;67.40
45096;DHT22;30858;51.108;8.068;2023-04-03T14:35:10;10.70;70.10
45096;DHT22;30858;51.108;8.068;2023-04-03T14:37:36;11.40;68.70
45096;DHT22;30858;51.108;8.068;2023-04-03T14:40:03;11.40;66.80
45096;DHT22;30858;51.108;8.068;2023-04-03T14:42:32;10.80;67.00
45096;DHT22;30858;51.108;8.068;2023-04-03T14:44:59;10.90;67.40
45096;DHT22;30858;51.108;8.068;2023-04-03T14:47:28;11.30;66.90
45096;DHT22;30858;51.108;8.068;2023-04-03T14:49:55;10.00;68.80
45096;DHT22;30858;51.108;8.068;2023-04-03T14:52:31;9.70;69.80
45096;DHT22;30858;51.108;8.068;2023-04-03T14:54:57;10.10;71.70
45096;DHT22;30858;51.108;8.068;2023-04-03T14:57:25;11.30;70.80
45096;DHT22;30858;51.108;8.068;2023-04-03T14:59:51;11.10;70.30
45096;DHT22;30858;51.108;8.068;2023-04-03T15:02:29;12.40;70.40
45096;DHT22;30858;51.108;8.068;2023-04-03T15:04:56;13.50;67.40
45096;DHT22;30858;51.108;8.068;2023-04-03T15:07:23;13.20;65.90
45096;DHT22;30858;51.108;8.068;2023-04-03T15:09:49;11.60;65.10
45096;DHT22;30858;51.108;8.068;2023-04-03T15:12:15;10.90;67.90
45096;DHT22;30858;51.108;8.068;2023-04-03T15:14:41;10.60;68.50
45096;DHT22;30858;51.108;8.068;2023-04-03T15:17:15;11.30;68.80
45096;DHT22;30858;51.108;8.068;2023-04-03T15:19:41;11.30;68.40
45096;DHT22;30858;51.108;8.068;2023-04-03T15:22:08;11.20;68.40
45096;DHT22;30858;51.108;8.068;2023-04-03T15:24:37;10.40;70.40
45096;DHT22;30858;51.108;8.068;2023-04-03T15:27:03;11.40;69.60
45096;DHT22;30858;51.108;8.068;2023-04-03T15:29:28;11.90;66.10
45096;DHT22;30858;51.108;8.068;2023-04-03T15:31:54;12.10;65.30
45096;DHT22;30858;51.108;8.068;2023-04-03T15:34:20;12.90;67.20
45096;DHT22;30858;51.108;8.068;2023-04-03T15:36:46;14.30;63.60
45096;DHT22;30858;51.108;8.068;2023-04-03T15:39:12;14.00;61.90
45096;DHT22;30858;51.108;8.068;2023-04-03T15:41:37;13.40;61.90
45096;DHT22;30858;51.108;8.068;2023-04-03T15:44:03;13.30;63.00
45096;DHT22;30858;51.108;8.068;2023-04-03T15:46:29;13.00;63.10
45096;DHT22;30858;51.108;8.068;2023-04-03T15:48:54;11.60;64.20
45096;DHT22;30858;51.108;8.068;2023-04-03T15:51:20;11.60;67.00
45096;DHT22;30858;51.108;8.068;2023-04-03T15:53:46;12.30;66.20
45096;DHT22;30858;51.108;8.068;2023-04-03T15:56:11;11.10;66.40
45096;DHT22;30858;51.108;8.068;2023-04-03T15:58:37;11.30;69.60
45096;DHT22;30858;51.108;8.068;2023-04-03T16:01:03;12.80;67.20
45096;DHT22;30858;51.108;8.068;2023-04-03T16:03:28;12.10;67.80
45096;DHT22;30858;51.108;8.068;2023-04-03T16:05:55;10.80;67.90
45096;DHT22;30858;51.108;8.068;2023-04-03T16:08:21;8.90;72.60
45096;DHT22;30858;51.108;8.068;2023-04-03T16:10:46;9.20;73.50
45096;DHT22;30858;51.108;8.068;2023-04-03T16:13:13;10.20;71.80
45096;DHT22;30858;51.108;8.068;2023-04-03T16:15:39;11.40;70.20
45096;DHT22;30858;51.108;8.068;2023-04-03T16:18:05;11.30;68.20
45096;DHT22;30858;51.108;8.068;2023-04-03T16:20:30;11.70;69.00
45096;DHT22;30858;51.108;8.068;2023-04-03T16:22:58;13.40;65.40
45096;DHT22;30858;51.108;8.068;2023-04-03T16:25:24;13.20;63.70
45096;DHT22;30858;51.108;8.068;2023-04-03T16:27:50;13.20;66.00
45096;DHT22;30858;51.108;8.068;2023-04-03T16:30:16;10.20;67.60
45096;DHT22;30858;51.108;8.068;2023-04-03T16:32:42;10.50;69.60
45096;DHT22;30858;51.108;8.068;2023-04-03T16:35:08;10.00;71.70
45096;DHT22;30858;51.108;8.068;2023-04-03T16:37:35;9.00;70.30
45096;DHT22;30858;51.108;8.068;2023-04-03T16:40:01;8.30;72.40
45096;DHT22;30858;51.108;8.068;2023-04-03T16:42:28;7.80;75.30
45096;DHT22;30858;51.108;8.068;2023-04-03T16:44:53;8.20;75.90
45096;DHT22;30858;51.108;8.068;2023-04-03T16:47:19;8.00;77.10
45096;DHT22;30858;51.108;8.068;2023-04-03T16:49:45;7.70;75.80
45096;DHT22;30858;51.108;8.068;2023-04-03T16:52:12;7.30;76.80
45096;DHT22;30858;51.108;8.068;2023-04-03T16:54:38;7.50;78.90
45096;DHT22;30858;51.108;8.068;2023-04-03T16:57:03;7.40;78.80
45096;DHT22;30858;51.108;8.068;2023-04-03T16:59:29;6.90;78.40
45096;DHT22;30858;51.108;8.068;2023-04-03T17:01:54;6.80;78.90
45096;DHT22;30858;51.108;8.068;2023-04-03T17:04:20;6.60;78.40
45096;DHT22;30858;51.108;8.068;2023-04-03T17:06:45;6.80;79.30
45096;DHT22;30858;51.108;8.068;2023-04-03T17:09:11;6.50;78.40
45096;DHT22;30858;51.108;8.068;2023-04-03T17:11:37;6.60;79.90
45096;DHT22;30858;51.108;8.068;2023-04-03T17:14:04;6.50;79.50
45096;DHT22;30858;51.108;8.068;2023-04-03T17:16:31;6.30;81.30
45096;DHT22;30858;51.108;8.068;2023-04-03T17:18:57;6.20;83.90
45096;DHT22;30858;51.108;8.068;2023-04-03T17:21:23;6.10;85.70
45096;DHT22;30858;51.108;8.068;2023-04-03T17:23:51;6.00;87.70
45096;DHT22;30858;51.108;8.068;2023-04-03T17:26:19;6.00;87.40
45096;DHT22;30858;51.108;8.068;2023-04-03T17:28:46;6.00;90.10
45096;DHT22;30858;51.108;8.068;2023-04-03T17:31:11;5.90;90.30
45096;DHT22;30858;51.108;8.068;2023-04-03T17:33:37;5.70;90.30